Nathaniel B. Palmer — WBP3210 — position and weather

sailwx.info

Track history (hours):
 
Tides and Currents Weather Stations Pressure Air Temp Water Temp Dewpoint Dewpoint Depression Visibility Wind Speed Wind Dir Waves Ship Positions

Oceanographic research ship Nathaniel B. Palmer (USA)

Contact: Ethan Norris, ethan.norris.contractor@usap.gov

Detailed information on ship capabilities available from University of Delaware's Ocean Information Center and ARCUS's ALIAS (Arctic Logistics Information and Support) project.

Owner: OFFSHORE SERVICE VESSELS, GALLIANO, LA. More information available from US FCC via Universal Licensing System and Coast Guard Vessel Documentation Center.

Last reported at 2015-Apr-21 10:00 UTC. Time now 2015-Apr-21 11:35 UTC.
Position S 64°48' E 130°00'.

Type: Other ship. MMSI: 366610000.

Wind from 110 at 61 knots

Barometer 957.4 mb
Air temperature -8.9 ° C
Water temperature 1.8 ° C

Date/timePositionNaut miles runAvg speedWind from/ knotsBaromVisibWave heightAir tempDewpointWater temp
2015-Apr-21 10:00S 64°48' E 130°00'8 3.8 110 / 61957.4 -8.9 1.8
2015-Apr-21 08:00S 64°48' E 129°42'6 1.5 110 / 52964.0 -8.8 1.8
2015-Apr-21 04:00S 64°54' E 129°42'16 7.9 260 / 34975.8 -8.2 1.8
2015-Apr-21 02:00S 64°42' E 129°18'8 3.8 080 / 31976.9 -5.5 1.8
2015-Apr-21 00:00S 64°42' E 129°00'8 3.8 120 / 26978.4 -5.7 1.7
2015-Apr-20 22:00S 64°42' E 128°42'10 5.1 080 / 24977.9 -6.4 1.8
2015-Apr-20 20:00S 64°42' E 128°18'15 3.8 200 / 19977.8 -7.3 1.8
2015-Apr-20 16:00S 64°42' E 127°42'13 6.4 120 / 25974.9 -8.1 1.8
2015-Apr-20 14:00S 64°42' E 127°12'5 2.6 110 / 25973.8 -7.6 1.8
2015-Apr-20 12:00S 64°42' E 127°00'3 1.3 290 / 23973.1 -7.3 1.8
2015-Apr-20 10:00S 64°42' E 126°54'14 7.1 110 / 21973.4 -8.1 1.8
2015-Apr-20 08:00S 64°36' E 126°24'10 2.6 100 / 16973.6 -9.0 1.8
2015-Apr-20 04:00S 64°36' E 126°00'5 2.6 240 / 12974.8 -9.7 1.7
2015-Apr-20 02:00S 64°36' E 125°48'12 5.9 130 / 13974.8 1.8
2015-Apr-20 00:00S 64°42' E 125°24'5 2.6 120 / 14974.4 1.8
2015-Apr-19 22:00S 64°42' E 125°12'5 2.6 150 / 14973.6 1.8
2015-Apr-19 20:00S 64°42' E 125°00'0 0.0 060 / 14971.9 1.7
2015-Apr-19 18:00S 64°42' E 125°00'3 0.6 140 / 17970.3 1.8
2015-Apr-19 14:00S 64°42' E 125°06'10 5.1 130 / 28966.9 1.8
2015-Apr-19 12:00S 64°42' E 125°30'8 3.8 130 / 31965.7 -9.0 1.8
2015-Apr-19 10:00S 64°42' E 125°48'21 3.6 110 / 38963.8 1.8
2015-Apr-19 04:00S 64°48' E 125°00'8 3.8 110 / 35961.3 1.8
2015-Apr-19 02:00S 64°48' E 124°42'8 3.8 120 / 45963.3 -9.7 1.8
2015-Apr-19 00:00S 64°48' E 124°24'10 5.1 120 / 41966.1 -9.8 1.8
2015-Apr-18 22:00S 64°48' E 124°00'3 1.3 130 / 29969.1 1.8
2015-Apr-18 20:00S 64°48' E 123°54'0 0.0 340 / 24972.6 1.8
2015-Apr-18 18:00S 64°48' E 123°54'18 8.9 110 / 17974.2 1.8
2015-Apr-18 16:00S 64°48' E 123°12'12 3.0 150 / 9975.5 1.8
2015-Apr-18 12:00S 64°54' E 122°48'19 9.4 270 / 10975.1 1.8
2015-Apr-18 10:00S 65°00' E 122°06'16 8.2 240 / 12974.3 1.7
2015-Apr-18 08:00S 65°06' E 121°30'13 3.3 230 / 13972.6 1.8
2015-Apr-18 04:00S 65°18' E 121°18'6 3.0 180 / 10969.7 1.8
2015-Apr-18 02:00S 65°12' E 121°18'13 6.5 250 / 16968.1 1.8
2015-Apr-18 00:00S 65°00' E 121°06'7 3.3 250 / 21968.0 1.8
2015-Apr-17 22:00S 64°54' E 121°00'8 3.9 190 / 20967.4 -9.2 1.6
2015-Apr-17 20:00S 64°48' E 120°48'18 8.9 250 / 18967.6 -9.7 1.8
2015-Apr-17 18:00S 64°48' E 120°06'0 0.0 240 / 16967.7 -9.6 1.8
2015-Apr-17 16:00S 64°48' E 120°06'5 2.6 070 / 16967.7 -9.4 1.7
2015-Apr-17 14:00S 64°48' E 119°54'16 8.2 230 / 14968.1 -7.7 1.8
2015-Apr-17 12:00S 64°54' E 119°18'15 7.6 210 / 13968.9 -8.2 1.8
2015-Apr-17 10:00S 64°54' E 118°42'12 6.0 190 / 7969.3 -7.9 1.8
2015-Apr-17 08:00S 65°06' E 118°42'8 1.9 180 / 12969.2 -8.0 1.8
2015-Apr-17 04:00S 65°06' E 118°24'7 3.3 170 / 12969.6 -6.1 1.8
2015-Apr-17 02:00S 65°00' E 118°18'7 3.3 240 / 10970.3 -6.3 1.8
2015-Apr-17 00:00S 65°06' E 118°24'10 5.1 200 / 13970.4 -6.1 1.8
2015-Apr-16 22:00S 65°06' E 118°48'0 0.0 230 / 15970.6 -5.4 1.8
2015-Apr-16 20:00S 65°06' E 118°48'0 0.0 240 / 15971.4 -5.7 1.7
2015-Apr-16 18:00S 65°06' E 118°48'8 3.8 220 / 12971.9 -5.7 1.8
2015-Apr-16 16:00S 65°06' E 118°30'10 5.1 220 / 10972.0 -6.0 1.8
2015-Apr-16 14:00S 65°06' E 118°06'8 3.8 210 / 7971.9 -5.7 1.8
2015-Apr-16 12:00S 65°06' E 117°48'8 3.9 270 / 7971.6 -5.3 1.8
2015-Apr-16 10:00S 65°00' E 117°36'7 3.3 330 / 8970.8 -4.6 1.8
2015-Apr-16 08:00S 64°54' E 117°30'13 3.2 280 / 10969.4 -5.0 1.8
2015-Apr-16 04:00S 64°54' E 117°00'10 2.4 320 / 15966.0 -6.4 1.8
2015-Apr-16 00:00S 65°00' E 117°18'3 1.3 290 / 26961.8 -6.0 1.8
2015-Apr-15 22:00S 65°00' E 117°24'0 0.0 090 / 21959.3 -5.3 1.7
2015-Apr-15 20:00S 65°00' E 117°24'3 1.3 270 / 18956.9 -5.6 1.8
2015-Apr-15 18:00S 65°00' E 117°30'18 4.4 270 / 17955.8 -5.7 1.8
2015-Apr-15 14:00S 65°00' E 118°12'0 0.0 150 / 7954.3 -3.4 1.8
2015-Apr-15 12:00S 65°00' E 118°12'6 3.0 020 / 15953.8 -4.0 1.7
2015-Apr-15 10:00S 65°06' E 118°12'6 3.0 200 / 30953.8 -3.5 1.6
2015-Apr-15 08:00S 65°12' E 118°12'21 5.1 120 / 22953.5 -2.7 1.8
2015-Apr-15 04:00S 65°30' E 118°36'6 3.2 100 / 34954.7 -4.3 1.9
2015-Apr-15 02:00S 65°24' E 118°30'10 4.8 120 / 30956.2 -2.7 1.8
2015-Apr-15 00:00S 65°18' E 118°48'7 3.3 090 / 15956.7 -1.0 1.8
2015-Apr-14 22:00S 65°12' E 118°54'7 3.3 080 / 14956.0 -0.6 1.8
2015-Apr-14 20:00S 65°06' E 119°00'7 3.3 070 / 16954.3 -1.1 1.8
2015-Apr-14 18:00S 65°12' E 118°54'6 3.0 050 / 31952.0 -0.6 1.8
2015-Apr-14 16:00S 65°06' E 118°54'14 7.1 030 / 31947.7 -1.0 1.8
2015-Apr-14 14:00S 64°54' E 118°36'10 5.1 050 / 28944.9 -1.1 1.8
2015-Apr-14 12:00S 64°54' E 118°12'0 0.0 060 / 23945.4 -0.9 1.7
2015-Apr-14 10:00S 64°54' E 118°12'5 2.5 030 / 16946.9 -0.9 1.7
2015-Apr-14 08:00S 64°54' E 118°24'22 5.5 050 / 13947.8 -1.1 1.8
2015-Apr-14 04:00S 65°12' E 118°54'8 3.8 080 / 40952.6 -4.7 1.8
2015-Apr-14 02:00S 65°12' E 119°12'3 1.3 100 / 50954.2 -6.0 1.8
2015-Apr-14 00:00S 65°12' E 119°18'14 7.1 090 / 44960.5 -5.8 1.8
2015-Apr-13 22:00S 65°24' E 119°36'12 5.8 110 / 38966.0 -2.9 1.8
2015-Apr-13 20:00S 65°18' E 120°00'3 1.3 070 / 31972.2 -4.3 1.8
2015-Apr-13 18:00S 65°18' E 120°06'10 4.8 090 / 22975.7 -4.1 1.8
2015-Apr-13 16:00S 65°24' E 119°48'0 0.0 060 / 13979.6 -3.8 1.8
2015-Apr-13 14:00S 65°24' E 119°48'7 3.3 020 / 8982.1 -4.0 1.8
2015-Apr-13 12:00S 65°18' E 119°54'7 3.3 300 / 7983.1 -4.2 1.8
2015-Apr-13 10:00S 65°24' E 119°48'6 3.2 300 / 15982.7 -4.8 1.8
2015-Apr-13 08:00S 65°30' E 119°42'16 3.9 280 / 8982.8 -5.4 1.7
2015-Apr-13 04:00S 65°18' E 119°18'12 6.1 280 / 19983.0 -6.5 1.8
2015-Apr-13 02:00S 65°06' E 119°12'13 6.5 270 / 31982.9 -5.9 1.8
2015-Apr-13 00:00S 64°54' E 119°00'3 1.3 240 / 20982.8 -6.4 1.7
2015-Apr-12 22:00S 64°54' E 118°54'5 2.5 190 / 17982.1 -4.5 1.7
2015-Apr-12 20:00S 64°54' E 119°06'8 3.8 270 / 15981.7 -3.0 1.7
2015-Apr-12 18:00S 64°54' E 119°24'12 6.1 300 / 12982.5 -1.8 1.7
2015-Apr-12 16:00S 64°42' E 119°18'13 6.5 320 / 10984.2 -1.5 1.6
2015-Apr-12 14:00S 64°30' E 119°06'12 6.0 310 / 9986.6 -1.5 1.7
2015-Apr-12 12:00S 64°24' E 118°42'48 4.0 310 / 12988.3 -1.3 1.6
2015-Apr-12 00:00S 64°12' E 116°54'3 1.3 200 / 22981.9 0.2 1.4
2015-Apr-11 22:00S 64°12' E 116°48'17 4.2 340 / 31981.0 0.8 1.4
2015-Apr-11 18:00S 64°06' E 116°12'   330 / 22981.2 1.2 1.6
Track history (hours):
 
Tides and Currents Weather Stations Pressure Air Temp Water Temp Dewpoint Dewpoint Depression Visibility Wind Speed Wind Dir Waves Ship Positions

Oceanographic research ship Nathaniel B. Palmer (USA)

Contact: Ethan Norris, ethan.norris.contractor@usap.gov

Detailed information on ship capabilities available from University of Delaware's Ocean Information Center and ARCUS's ALIAS (Arctic Logistics Information and Support) project.

Owner: OFFSHORE SERVICE VESSELS, GALLIANO, LA. More information available from US FCC via Universal Licensing System and Coast Guard Vessel Documentation Center.

Last reported at 2015-Apr-21 10:00 UTC. Time now 2015-Apr-21 11:35 UTC.
Position S 64°48' E 130°00'.

Type: Other ship. MMSI: 366610000.

Wind from 110 at 61 knots

Barometer 957.4 mb
Air temperature -8.9 ° C
Water temperature 1.8 ° C

Date/timePositionNaut miles runAvg speedWind from/ knotsBaromVisibWave heightAir tempDewpointWater temp
2015-Apr-21 10:00S 64°48' E 130°00'8 3.8 110 / 61957.4 -8.9 1.8
2015-Apr-21 08:00S 64°48' E 129°42'6 1.5 110 / 52964.0 -8.8 1.8
2015-Apr-21 04:00S 64°54' E 129°42'16 7.9 260 / 34975.8 -8.2 1.8
2015-Apr-21 02:00S 64°42' E 129°18'8 3.8 080 / 31976.9 -5.5 1.8
2015-Apr-21 00:00S 64°42' E 129°00'8 3.8 120 / 26978.4 -5.7 1.7
2015-Apr-20 22:00S 64°42' E 128°42'10 5.1 080 / 24977.9 -6.4 1.8
2015-Apr-20 20:00S 64°42' E 128°18'15 3.8 200 / 19977.8 -7.3 1.8
2015-Apr-20 16:00S 64°42' E 127°42'13 6.4 120 / 25974.9 -8.1 1.8
2015-Apr-20 14:00S 64°42' E 127°12'5 2.6 110 / 25973.8 -7.6 1.8
2015-Apr-20 12:00S 64°42' E 127°00'3 1.3 290 / 23973.1 -7.3 1.8
2015-Apr-20 10:00S 64°42' E 126°54'14 7.1 110 / 21973.4 -8.1 1.8
2015-Apr-20 08:00S 64°36' E 126°24'10 2.6 100 / 16973.6 -9.0 1.8
2015-Apr-20 04:00S 64°36' E 126°00'5 2.6 240 / 12974.8 -9.7 1.7
2015-Apr-20 02:00S 64°36' E 125°48'12 5.9 130 / 13974.8 1.8
2015-Apr-20 00:00S 64°42' E 125°24'5 2.6 120 / 14974.4 1.8
2015-Apr-19 22:00S 64°42' E 125°12'5 2.6 150 / 14973.6 1.8
2015-Apr-19 20:00S 64°42' E 125°00'0 0.0 060 / 14971.9 1.7
2015-Apr-19 18:00S 64°42' E 125°00'3 0.6 140 / 17970.3 1.8
2015-Apr-19 14:00S 64°42' E 125°06'10 5.1 130 / 28966.9 1.8
2015-Apr-19 12:00S 64°42' E 125°30'8 3.8 130 / 31965.7 -9.0 1.8
2015-Apr-19 10:00S 64°42' E 125°48'21 3.6 110 / 38963.8 1.8
2015-Apr-19 04:00S 64°48' E 125°00'8 3.8 110 / 35961.3 1.8
2015-Apr-19 02:00S 64°48' E 124°42'8 3.8 120 / 45963.3 -9.7 1.8
2015-Apr-19 00:00S 64°48' E 124°24'10 5.1 120 / 41966.1 -9.8 1.8
2015-Apr-18 22:00S 64°48' E 124°00'3 1.3 130 / 29969.1 1.8
2015-Apr-18 20:00S 64°48' E 123°54'0 0.0 340 / 24972.6 1.8
2015-Apr-18 18:00S 64°48' E 123°54'18 8.9 110 / 17974.2 1.8
2015-Apr-18 16:00S 64°48' E 123°12'12 3.0 150 / 9975.5 1.8
2015-Apr-18 12:00S 64°54' E 122°48'19 9.4 270 / 10975.1 1.8
2015-Apr-18 10:00S 65°00' E 122°06'16 8.2 240 / 12974.3 1.7
2015-Apr-18 08:00S 65°06' E 121°30'13 3.3 230 / 13972.6 1.8
2015-Apr-18 04:00S 65°18' E 121°18'6 3.0 180 / 10969.7 1.8
2015-Apr-18 02:00S 65°12' E 121°18'13 6.5 250 / 16968.1 1.8
2015-Apr-18 00:00S 65°00' E 121°06'7 3.3 250 / 21968.0 1.8
2015-Apr-17 22:00S 64°54' E 121°00'8 3.9 190 / 20967.4 -9.2 1.6
2015-Apr-17 20:00S 64°48' E 120°48'18 8.9 250 / 18967.6 -9.7 1.8
2015-Apr-17 18:00S 64°48' E 120°06'0 0.0 240 / 16967.7 -9.6 1.8
2015-Apr-17 16:00S 64°48' E 120°06'5 2.6 070 / 16967.7 -9.4 1.7
2015-Apr-17 14:00S 64°48' E 119°54'16 8.2 230 / 14968.1 -7.7 1.8
2015-Apr-17 12:00S 64°54' E 119°18'15 7.6 210 / 13968.9 -8.2 1.8
2015-Apr-17 10:00S 64°54' E 118°42'12 6.0 190 / 7969.3 -7.9 1.8
2015-Apr-17 08:00S 65°06' E 118°42'8 1.9 180 / 12969.2 -8.0 1.8
2015-Apr-17 04:00S 65°06' E 118°24'7 3.3 170 / 12969.6 -6.1 1.8
2015-Apr-17 02:00S 65°00' E 118°18'7 3.3 240 / 10970.3 -6.3 1.8
2015-Apr-17 00:00S 65°06' E 118°24'10 5.1 200 / 13970.4 -6.1 1.8
2015-Apr-16 22:00S 65°06' E 118°48'0 0.0 230 / 15970.6 -5.4 1.8
2015-Apr-16 20:00S 65°06' E 118°48'0 0.0 240 / 15971.4 -5.7 1.7
2015-Apr-16 18:00S 65°06' E 118°48'8 3.8 220 / 12971.9 -5.7 1.8
2015-Apr-16 16:00S 65°06' E 118°30'10 5.1 220 / 10972.0 -6.0 1.8
2015-Apr-16 14:00S 65°06' E 118°06'8 3.8 210 / 7971.9 -5.7 1.8
2015-Apr-16 12:00S 65°06' E 117°48'8 3.9 270 / 7971.6 -5.3 1.8
2015-Apr-16 10:00S 65°00' E 117°36'7 3.3 330 / 8970.8 -4.6 1.8
2015-Apr-16 08:00S 64°54' E 117°30'13 3.2 280 / 10969.4 -5.0 1.8
2015-Apr-16 04:00S 64°54' E 117°00'10 2.4 320 / 15966.0 -6.4 1.8
2015-Apr-16 00:00S 65°00' E 117°18'3 1.3 290 / 26961.8 -6.0 1.8
2015-Apr-15 22:00S 65°00' E 117°24'0 0.0 090 / 21959.3 -5.3 1.7
2015-Apr-15 20:00S 65°00' E 117°24'3 1.3 270 / 18956.9 -5.6 1.8
2015-Apr-15 18:00S 65°00' E 117°30'18 4.4 270 / 17955.8 -5.7 1.8
2015-Apr-15 14:00S 65°00' E 118°12'0 0.0 150 / 7954.3 -3.4 1.8
2015-Apr-15 12:00S 65°00' E 118°12'6 3.0 020 / 15953.8 -4.0 1.7
2015-Apr-15 10:00S 65°06' E 118°12'6 3.0 200 / 30953.8 -3.5 1.6
2015-Apr-15 08:00S 65°12' E 118°12'21 5.1 120 / 22953.5 -2.7 1.8
2015-Apr-15 04:00S 65°30' E 118°36'6 3.2 100 / 34954.7 -4.3 1.9
2015-Apr-15 02:00S 65°24' E 118°30'10 4.8 120 / 30956.2 -2.7 1.8
2015-Apr-15 00:00S 65°18' E 118°48'7 3.3 090 / 15956.7 -1.0 1.8
2015-Apr-14 22:00S 65°12' E 118°54'7 3.3 080 / 14956.0 -0.6 1.8
2015-Apr-14 20:00S 65°06' E 119°00'7 3.3 070 / 16954.3 -1.1 1.8
2015-Apr-14 18:00S 65°12' E 118°54'6 3.0 050 / 31952.0 -0.6 1.8
2015-Apr-14 16:00S 65°06' E 118°54'14 7.1 030 / 31947.7 -1.0 1.8
2015-Apr-14 14:00S 64°54' E 118°36'10 5.1 050 / 28944.9 -1.1 1.8
2015-Apr-14 12:00S 64°54' E 118°12'0 0.0 060 / 23945.4 -0.9 1.7
2015-Apr-14 10:00S 64°54' E 118°12'5 2.5 030 / 16946.9 -0.9 1.7
2015-Apr-14 08:00S 64°54' E 118°24'22 5.5 050 / 13947.8 -1.1 1.8
2015-Apr-14 04:00S 65°12' E 118°54'8 3.8 080 / 40952.6 -4.7 1.8
2015-Apr-14 02:00S 65°12' E 119°12'3 1.3 100 / 50954.2 -6.0 1.8
2015-Apr-14 00:00S 65°12' E 119°18'14 7.1 090 / 44960.5 -5.8 1.8
2015-Apr-13 22:00S 65°24' E 119°36'12 5.8 110 / 38966.0 -2.9 1.8
2015-Apr-13 20:00S 65°18' E 120°00'3 1.3 070 / 31972.2 -4.3 1.8
2015-Apr-13 18:00S 65°18' E 120°06'10 4.8 090 / 22975.7 -4.1 1.8
2015-Apr-13 16:00S 65°24' E 119°48'0 0.0 060 / 13979.6 -3.8 1.8
2015-Apr-13 14:00S 65°24' E 119°48'7 3.3 020 / 8982.1 -4.0 1.8
2015-Apr-13 12:00S 65°18' E 119°54'7 3.3 300 / 7983.1 -4.2 1.8
2015-Apr-13 10:00S 65°24' E 119°48'6 3.2 300 / 15982.7 -4.8 1.8
2015-Apr-13 08:00S 65°30' E 119°42'16 3.9 280 / 8982.8 -5.4 1.7
2015-Apr-13 04:00S 65°18' E 119°18'12 6.1 280 / 19983.0 -6.5 1.8
2015-Apr-13 02:00S 65°06' E 119°12'13 6.5 270 / 31982.9 -5.9 1.8
2015-Apr-13 00:00S 64°54' E 119°00'3 1.3 240 / 20982.8 -6.4 1.7
2015-Apr-12 22:00S 64°54' E 118°54'5 2.5 190 / 17982.1 -4.5 1.7
2015-Apr-12 20:00S 64°54' E 119°06'8 3.8 270 / 15981.7 -3.0 1.7
2015-Apr-12 18:00S 64°54' E 119°24'12 6.1 300 / 12982.5 -1.8 1.7
2015-Apr-12 16:00S 64°42' E 119°18'13 6.5 320 / 10984.2 -1.5 1.6
2015-Apr-12 14:00S 64°30' E 119°06'12 6.0 310 / 9986.6 -1.5 1.7
2015-Apr-12 12:00S 64°24' E 118°42'48 4.0 310 / 12988.3 -1.3 1.6
2015-Apr-12 00:00S 64°12' E 116°54'3 1.3 200 / 22981.9 0.2 1.4
2015-Apr-11 22:00S 64°12' E 116°48'17 4.2 340 / 31981.0 0.8 1.4
2015-Apr-11 18:00S 64°06' E 116°12'   330 / 22981.2 1.2 1.6

Dump ship's entire track history